sensor_id;sensor_type;location;lat;lon;timestamp;pressure;altitude;pressure_sealevel;temperature;humidity
6835;BME280;3455;42.150;24.734;2023-04-22T00:02:13;66964.72;;;15.06;84.51
6835;BME280;3455;42.150;24.734;2023-04-22T00:04:41;66958.69;;;15.14;84.58
6835;BME280;3455;42.150;24.734;2023-04-22T00:07:08;66958.34;;;15.12;83.96
6835;BME280;3455;42.150;24.734;2023-04-22T00:09:36;66913.72;;;14.72;85.42
6835;BME280;3455;42.150;24.734;2023-04-22T00:12:04;66975.38;;;15.36;84.02
6835;BME280;3455;42.150;24.734;2023-04-22T00:14:31;66985.09;;;15.51;82.53
6835;BME280;3455;42.150;24.734;2023-04-22T00:16:57;67017.47;;;15.64;81.78
6835;BME280;3455;42.150;24.734;2023-04-22T00:19:24;67013.75;;;15.63;81.32
6835;BME280;3455;42.150;24.734;2023-04-22T00:21:52;67023.63;;;15.49;81.38
6835;BME280;3455;42.150;24.734;2023-04-22T00:24:19;67060.56;;;15.62;81.15
6835;BME280;3455;42.150;24.734;2023-04-22T00:26:47;67032.69;;;15.71;81.00
6835;BME280;3455;42.150;24.734;2023-04-22T00:29:14;66954.69;;;15.49;81.75
6835;BME280;3455;42.150;24.734;2023-04-22T00:31:40;66988.84;;;15.41;81.98
6835;BME280;3455;42.150;24.734;2023-04-22T00:34:07;67037.69;;;15.44;82.08
6835;BME280;3455;42.150;24.734;2023-04-22T00:36:34;67025.03;;;15.60;81.33
6835;BME280;3455;42.150;24.734;2023-04-22T00:39:00;66991.63;;;15.39;82.05
6835;BME280;3455;42.150;24.734;2023-04-22T00:41:27;66986.63;;;15.32;82.60
6835;BME280;3455;42.150;24.734;2023-04-22T00:43:57;66995.91;;;15.07;83.69
6835;BME280;3455;42.150;24.734;2023-04-22T00:46:25;66949.19;;;14.97;85.24
6835;BME280;3455;42.150;24.734;2023-04-22T00:48:52;66946.53;;;15.04;84.42
6835;BME280;3455;42.150;24.734;2023-04-22T00:51:19;66947.31;;;15.13;82.99
6835;BME280;3455;42.150;24.734;2023-04-22T00:53:46;66975.38;;;15.25;82.28
6835;BME280;3455;42.150;24.734;2023-04-22T00:56:13;66912.28;;;15.18;82.49
6835;BME280;3455;42.150;24.734;2023-04-22T00:58:40;66979.78;;;15.19;82.71
6835;BME280;3455;42.150;24.734;2023-04-22T01:01:08;67003.94;;;15.32;82.64
6835;BME280;3455;42.150;24.734;2023-04-22T01:03:37;67001.38;;;15.21;83.52
6835;BME280;3455;42.150;24.734;2023-04-22T01:06:06;66982.09;;;15.22;83.83
6835;BME280;3455;42.150;24.734;2023-04-22T01:08:33;67006.25;;;15.34;83.17
6835;BME280;3455;42.150;24.734;2023-04-22T01:11:01;67008.81;;;15.34;82.94
6835;BME280;3455;42.150;24.734;2023-04-22T01:13:28;66986.50;;;15.39;82.54
6835;BME280;3455;42.150;24.734;2023-04-22T01:15:55;67016.22;;;15.47;82.30
6835;BME280;3455;42.150;24.734;2023-04-22T01:18:24;67011.34;;;15.34;82.44
6835;BME280;3455;42.150;24.734;2023-04-22T01:20:51;66987.22;;;15.22;82.92
6835;BME280;3455;42.150;24.734;2023-04-22T01:23:20;66964.72;;;15.06;83.85
6835;BME280;3455;42.150;24.734;2023-04-22T01:25:47;66880.53;;;14.84;84.53
6835;BME280;3455;42.150;24.734;2023-04-22T01:28:16;66942.81;;;14.91;84.35
6835;BME280;3455;42.150;24.734;2023-04-22T01:30:43;66966.72;;;14.94;84.17
6835;BME280;3455;42.150;24.734;2023-04-22T01:33:11;66992.56;;;14.86;84.58
6835;BME280;3455;42.150;24.734;2023-04-22T01:35:39;66958.25;;;14.96;84.56
6835;BME280;3455;42.150;24.734;2023-04-22T01:38:07;66948.50;;;14.92;84.35
6835;BME280;3455;42.150;24.734;2023-04-22T01:40:36;66946.16;;;14.90;84.98
6835;BME280;3455;42.150;24.734;2023-04-22T01:43:03;66984.69;;;14.88;85.05
6835;BME280;3455;42.150;24.734;2023-04-22T01:45:31;66958.81;;;14.85;85.01
6835;BME280;3455;42.150;24.734;2023-04-22T01:47:57;66888.91;;;14.66;85.40
6835;BME280;3455;42.150;24.734;2023-04-22T01:50:24;66901.44;;;14.46;86.81
6835;BME280;3455;42.150;24.734;2023-04-22T01:52:51;66893.06;;;14.52;86.70
6835;BME280;3455;42.150;24.734;2023-04-22T01:55:17;66837.38;;;14.20;87.74
6835;BME280;3455;42.150;24.734;2023-04-22T01:57:46;66854.84;;;14.18;87.84
6835;BME280;3455;42.150;24.734;2023-04-22T02:00:13;66917.44;;;14.51;86.37
6835;BME280;3455;42.150;24.734;2023-04-22T02:02:39;66913.25;;;14.43;86.44
6835;BME280;3455;42.150;24.734;2023-04-22T02:05:07;66913.22;;;14.09;88.25
6835;BME280;3455;42.150;24.734;2023-04-22T02:07:34;66853.09;;;14.16;87.90
6835;BME280;3455;42.150;24.734;2023-04-22T02:10:01;66876.75;;;14.10;88.55
6835;BME280;3455;42.150;24.734;2023-04-22T02:12:29;66889.47;;;14.10;89.04
6835;BME280;3455;42.150;24.734;2023-04-22T02:14:57;66878.38;;;14.07;88.31
6835;BME280;3455;42.150;24.734;2023-04-22T02:17:24;66882.88;;;14.07;88.81
6835;BME280;3455;42.150;24.734;2023-04-22T02:19:50;66842.09;;;13.84;88.14
6835;BME280;3455;42.150;24.734;2023-04-22T02:22:17;66868.28;;;13.89;88.99
6835;BME280;3455;42.150;24.734;2023-04-22T02:24:44;66823.00;;;13.90;89.07
6835;BME280;3455;42.150;24.734;2023-04-22T02:27:11;66864.94;;;13.91;89.42
6835;BME280;3455;42.150;24.734;2023-04-22T02:29:38;66859.03;;;13.81;90.12
6835;BME280;3455;42.150;24.734;2023-04-22T02:32:07;66873.84;;;13.96;89.56
6835;BME280;3455;42.150;24.734;2023-04-22T02:34:34;66840.38;;;13.82;90.05
6835;BME280;3455;42.150;24.734;2023-04-22T02:37:00;66832.38;;;13.80;89.96
6835;BME280;3455;42.150;24.734;2023-04-22T02:39:27;66857.97;;;13.85;89.67
6835;BME280;3455;42.150;24.734;2023-04-22T02:41:54;66848.59;;;13.83;89.96
6835;BME280;3455;42.150;24.734;2023-04-22T02:44:20;66796.25;;;13.61;91.34
6835;BME280;3455;42.150;24.734;2023-04-22T02:46:47;66870.94;;;13.82;90.18
6835;BME280;3455;42.150;24.734;2023-04-22T02:49:15;66829.59;;;13.59;91.60
6835;BME280;3455;42.150;24.734;2023-04-22T02:51:42;66832.13;;;13.71;91.50
6835;BME280;3455;42.150;24.734;2023-04-22T02:54:09;66855.53;;;13.89;90.60
6835;BME280;3455;42.150;24.734;2023-04-22T02:56:35;66846.75;;;13.88;90.59
6835;BME280;3455;42.150;24.734;2023-04-22T02:59:02;66834.22;;;13.86;90.78
6835;BME280;3455;42.150;24.734;2023-04-22T03:01:29;66853.56;;;13.90;90.55
6835;BME280;3455;42.150;24.734;2023-04-22T03:03:56;66879.16;;;13.83;91.27
6835;BME280;3455;42.150;24.734;2023-04-22T03:06:24;66878.47;;;13.89;91.00
6835;BME280;3455;42.150;24.734;2023-04-22T03:08:51;66821.47;;;13.63;91.91
6835;BME280;3455;42.150;24.734;2023-04-22T03:11:18;66832.13;;;13.71;91.85
6835;BME280;3455;42.150;24.734;2023-04-22T03:13:45;66842.53;;;13.57;92.41
6835;BME280;3455;42.150;24.734;2023-04-22T03:16:11;66827.72;;;13.53;92.38
6835;BME280;3455;42.150;24.734;2023-04-22T03:18:38;66858.78;;;13.72;91.66
6835;BME280;3455;42.150;24.734;2023-04-22T03:21:06;66873.13;;;13.69;92.23
6835;BME280;3455;42.150;24.734;2023-04-22T03:23:34;66813.28;;;13.63;92.70
6835;BME280;3455;42.150;24.734;2023-04-22T03:26:01;66844.19;;;13.77;91.90
6835;BME280;3455;42.150;24.734;2023-04-22T03:28:27;66761.31;;;13.78;92.41
6835;BME280;3455;42.150;24.734;2023-04-22T03:30:54;66902.81;;;13.99;91.57
6835;BME280;3455;42.150;24.734;2023-04-22T03:33:21;66882.88;;;14.07;90.83
6835;BME280;3455;42.150;24.734;2023-04-22T03:35:48;66859.13;;;13.86;91.34
6835;BME280;3455;42.150;24.734;2023-04-22T03:38:15;66825.75;;;13.54;92.61
6835;BME280;3455;42.150;24.734;2023-04-22T03:40:43;66906.94;;;13.74;91.74
6835;BME280;3455;42.150;24.734;2023-04-22T03:43:10;66864.34;;;13.90;90.99
6835;BME280;3455;42.150;24.734;2023-04-22T03:45:37;66840.47;;;13.65;91.70
6835;BME280;3455;42.150;24.734;2023-04-22T03:48:04;66828.44;;;13.70;91.88
6835;BME280;3455;42.150;24.734;2023-04-22T03:50:32;66834.34;;;13.68;91.49
6835;BME280;3455;42.150;24.734;2023-04-22T03:52:58;66871.97;;;13.79;90.91
6835;BME280;3455;42.150;24.734;2023-04-22T03:55:25;66854.16;;;13.68;91.50
6835;BME280;3455;42.150;24.734;2023-04-22T03:57:53;66878.56;;;13.60;91.67
6835;BME280;3455;42.150;24.734;2023-04-22T04:00:20;66814.75;;;13.33;91.30
6835;BME280;3455;42.150;24.734;2023-04-22T04:02:47;66854.13;;;13.45;91.03
6835;BME280;3455;42.150;24.734;2023-04-22T04:05:14;66794.59;;;13.19;90.04
6835;BME280;3455;42.150;24.734;2023-04-22T04:07:41;66787.94;;;13.45;90.31
6835;BME280;3455;42.150;24.734;2023-04-22T04:10:09;66799.72;;;13.42;90.03
6835;BME280;3455;42.150;24.734;2023-04-22T04:12:36;66826.34;;;13.43;90.20
6835;BME280;3455;42.150;24.734;2023-04-22T04:15:05;66807.25;;;13.49;89.17
6835;BME280;3455;42.150;24.734;2023-04-22T04:17:32;66839.31;;;13.63;88.31
6835;BME280;3455;42.150;24.734;2023-04-22T04:19:59;66850.09;;;13.64;87.06
6835;BME280;3455;42.150;24.734;2023-04-22T04:22:26;66866.28;;;13.78;87.10
6835;BME280;3455;42.150;24.734;2023-04-22T04:24:53;66896.06;;;13.91;86.33
6835;BME280;3455;42.150;24.734;2023-04-22T04:27:21;66885.41;;;13.95;86.22
6835;BME280;3455;42.150;24.734;2023-04-22T04:29:48;66888.44;;;14.02;85.99
6835;BME280;3455;42.150;24.734;2023-04-22T04:32:16;66890.75;;;14.05;85.16
6835;BME280;3455;42.150;24.734;2023-04-22T04:34:43;66872.69;;;13.95;84.34
6835;BME280;3455;42.150;24.734;2023-04-22T04:37:10;66900.94;;;14.05;84.40
6835;BME280;3455;42.150;24.734;2023-04-22T04:39:37;66907.78;;;14.06;83.76
6835;BME280;3455;42.150;24.734;2023-04-22T04:42:03;66872.69;;;14.07;84.05
6835;BME280;3455;42.150;24.734;2023-04-22T04:44:30;66849.97;;;13.93;83.52
6835;BME280;3455;42.150;24.734;2023-04-22T04:46:58;66847.78;;;14.07;83.43
6835;BME280;3455;42.150;24.734;2023-04-22T04:49:26;66915.09;;;14.37;82.66
6835;BME280;3455;42.150;24.734;2023-04-22T04:51:55;66946.59;;;14.18;82.80
6835;BME280;3455;42.150;24.734;2023-04-22T04:54:21;66932.72;;;14.51;82.09
6835;BME280;3455;42.150;24.734;2023-04-22T04:56:48;66923.47;;;14.65;81.37
6835;BME280;3455;42.150;24.734;2023-04-22T04:59:15;66943.03;;;14.55;81.42
6835;BME280;3455;42.150;24.734;2023-04-22T05:01:42;66980.75;;;14.66;80.51
6835;BME280;3455;42.150;24.734;2023-04-22T05:04:09;67037.09;;;14.75;80.09
6835;BME280;3455;42.150;24.734;2023-04-22T05:06:37;66992.69;;;14.90;79.73
6835;BME280;3455;42.150;24.734;2023-04-22T05:09:04;66926.22;;;14.52;80.45
6835;BME280;3455;42.150;24.734;2023-04-22T05:11:32;66996.75;;;15.16;79.04
6835;BME280;3455;42.150;24.734;2023-04-22T05:13:59;67049.66;;;15.45;77.99
6835;BME280;3455;42.150;24.734;2023-04-22T05:16:26;67059.63;;;15.81;77.02
6835;BME280;3455;42.150;24.734;2023-04-22T05:18:53;67079.84;;;15.83;76.49
6835;BME280;3455;42.150;24.734;2023-04-22T05:21:19;67097.31;;;16.26;74.48
6835;BME280;3455;42.150;24.734;2023-04-22T05:23:47;67213.91;;;17.24;71.13
6835;BME280;3455;42.150;24.734;2023-04-22T05:26:14;67295.16;;;18.03;66.96
6835;BME280;3455;42.150;24.734;2023-04-22T05:28:41;67428.88;;;18.94;62.61
6835;BME280;3455;42.150;24.734;2023-04-22T05:31:08;67372.16;;;18.57;62.44
6835;BME280;3455;42.150;24.734;2023-04-22T05:33:35;67457.78;;;19.10;60.28
6835;BME280;3455;42.150;24.734;2023-04-22T05:36:02;67500.66;;;19.66;58.49
6835;BME280;3455;42.150;24.734;2023-04-22T05:38:28;67671.53;;;20.67;55.21
6835;BME280;3455;42.150;24.734;2023-04-22T05:40:57;67592.22;;;20.51;54.52
6835;BME280;3455;42.150;24.734;2023-04-22T05:43:23;67511.19;;;19.64;57.15
6835;BME280;3455;42.150;24.734;2023-04-22T05:45:50;67518.84;;;19.87;56.72
6835;BME280;3455;42.150;24.734;2023-04-22T05:48:17;67554.84;;;20.14;55.21
6835;BME280;3455;42.150;24.734;2023-04-22T05:50:44;67566.88;;;20.15;55.13
6835;BME280;3455;42.150;24.734;2023-04-22T05:53:11;67580.38;;;20.32;55.89
6835;BME280;3455;42.150;24.734;2023-04-22T05:55:37;67652.25;;;21.04;53.26
6835;BME280;3455;42.150;24.734;2023-04-22T05:58:06;67686.16;;;21.38;51.53
6835;BME280;3455;42.150;24.734;2023-04-22T06:00:33;67788.75;;;22.40;49.17
6835;BME280;3455;42.150;24.734;2023-04-22T06:02:59;67885.00;;;22.77;48.02
6835;BME280;3455;42.150;24.734;2023-04-22T06:05:26;67964.31;;;23.38;47.30
6835;BME280;3455;42.150;24.734;2023-04-22T06:07:53;67975.00;;;23.56;46.41
6835;BME280;3455;42.150;24.734;2023-04-22T06:10:20;67877.84;;;22.93;46.61
6835;BME280;3455;42.150;24.734;2023-04-22T06:12:47;68133.44;;;24.59;43.62
6835;BME280;3455;42.150;24.734;2023-04-22T06:15:15;68005.72;;;24.01;44.11
6835;BME280;3455;42.150;24.734;2023-04-22T06:17:42;67996.03;;;23.75;45.12
6835;BME280;3455;42.150;24.734;2023-04-22T06:20:10;68005.22;;;23.74;45.49
6835;BME280;3455;42.150;24.734;2023-04-22T06:22:37;67922.25;;;23.32;46.05
6835;BME280;3455;42.150;24.734;2023-04-22T06:25:05;68034.16;;;23.97;44.84
6835;BME280;3455;42.150;24.734;2023-04-22T06:27:32;67838.16;;;22.74;48.00
6835;BME280;3455;42.150;24.734;2023-04-22T06:29:58;67905.47;;;23.43;46.53
6835;BME280;3455;42.150;24.734;2023-04-22T06:32:26;67937.84;;;23.37;46.51
6835;BME280;3455;42.150;24.734;2023-04-22T06:34:53;67972.16;;;23.58;46.36
6835;BME280;3455;42.150;24.734;2023-04-22T06:37:20;67921.00;;;23.27;47.38
6835;BME280;3455;42.150;24.734;2023-04-22T06:39:47;67924.44;;;23.25;45.64
6835;BME280;3455;42.150;24.734;2023-04-22T06:42:13;68067.06;;;24.19;43.50
6835;BME280;3455;42.150;24.734;2023-04-22T06:44:40;68054.66;;;24.35;44.30
6835;BME280;3455;42.150;24.734;2023-04-22T06:47:07;68037.03;;;24.47;42.55
6835;BME280;3455;42.150;24.734;2023-04-22T06:49:35;68125.91;;;24.89;41.67
6835;BME280;3455;42.150;24.734;2023-04-22T06:52:03;68144.31;;;24.86;43.39
6835;BME280;3455;42.150;24.734;2023-04-22T06:54:30;68222.22;;;25.59;39.86
6835;BME280;3455;42.150;24.734;2023-04-22T06:56:58;68183.25;;;25.07;40.25
6835;BME280;3455;42.150;24.734;2023-04-22T06:59:25;68073.56;;;24.61;41.57
6835;BME280;3455;42.150;24.734;2023-04-22T07:01:52;68231.81;;;25.45;40.92
6835;BME280;3455;42.150;24.734;2023-04-22T07:04:19;68314.63;;;25.95;38.74
6835;BME280;3455;42.150;24.734;2023-04-22T07:06:47;68160.31;;;25.30;41.00
6835;BME280;3455;42.150;24.734;2023-04-22T07:09:14;68272.34;;;25.90;39.51
6835;BME280;3455;42.150;24.734;2023-04-22T07:11:41;68251.22;;;26.03;38.13
6835;BME280;3455;42.150;24.734;2023-04-22T07:14:07;68515.59;;;27.57;36.28
6835;BME280;3455;42.150;24.734;2023-04-22T07:16:34;68486.84;;;27.32;35.52
6835;BME280;3455;42.150;24.734;2023-04-22T07:19:03;68440.75;;;27.26;36.03
6835;BME280;3455;42.150;24.734;2023-04-22T07:21:30;68385.19;;;26.70;35.85
6835;BME280;3455;42.150;24.734;2023-04-22T07:23:58;68309.91;;;26.43;37.26
6835;BME280;3455;42.150;24.734;2023-04-22T07:26:25;68473.91;;;27.21;34.72
6835;BME280;3455;42.150;24.734;2023-04-22T07:28:52;68402.59;;;27.29;34.38
6835;BME280;3455;42.150;24.734;2023-04-22T07:31:18;68438.63;;;27.22;35.83
6835;BME280;3455;42.150;24.734;2023-04-22T07:33:45;68423.53;;;27.17;36.52
6835;BME280;3455;42.150;24.734;2023-04-22T07:36:12;68513.09;;;27.82;35.85
6835;BME280;3455;42.150;24.734;2023-04-22T07:38:39;68672.44;;;28.94;34.43
6835;BME280;3455;42.150;24.734;2023-04-22T07:41:07;68551.81;;;28.16;35.13
6835;BME280;3455;42.150;24.734;2023-04-22T07:43:34;68539.06;;;27.77;34.66
6835;BME280;3455;42.150;24.734;2023-04-22T07:46:01;68426.22;;;27.22;35.82
6835;BME280;3455;42.150;24.734;2023-04-22T07:48:28;68546.72;;;27.84;33.66
6835;BME280;3455;42.150;24.734;2023-04-22T07:50:54;68559.47;;;27.86;33.48
6835;BME280;3455;42.150;24.734;2023-04-22T07:53:21;68707.91;;;28.82;32.20
6835;BME280;3455;42.150;24.734;2023-04-22T07:55:48;68586.66;;;28.19;31.78
6835;BME280;3455;42.150;24.734;2023-04-22T07:58:16;68735.34;;;29.12;31.12
6835;BME280;3455;42.150;24.734;2023-04-22T08:00:43;68606.19;;;28.09;33.11
6835;BME280;3455;42.150;24.734;2023-04-22T08:03:10;68639.53;;;28.65;31.06
6835;BME280;3455;42.150;24.734;2023-04-22T08:05:36;68780.84;;;29.45;31.80
6835;BME280;3455;42.150;24.734;2023-04-22T08:08:03;68870.19;;;30.35;29.96
6835;BME280;3455;42.150;24.734;2023-04-22T08:10:30;68762.41;;;29.36;32.50
6835;BME280;3455;42.150;24.734;2023-04-22T08:12:57;68776.69;;;29.58;30.82
6835;BME280;3455;42.150;24.734;2023-04-22T08:15:25;68835.84;;;30.12;30.62
6835;BME280;3455;42.150;24.734;2023-04-22T08:17:52;69009.13;;;30.90;29.50
6835;BME280;3455;42.150;24.734;2023-04-22T08:20:19;68971.72;;;30.59;29.05
6835;BME280;3455;42.150;24.734;2023-04-22T08:22:46;68812.03;;;29.73;32.18
6835;BME280;3455;42.150;24.734;2023-04-22T08:25:15;69068.22;;;31.30;29.93
6835;BME280;3455;42.150;24.734;2023-04-22T08:27:41;68953.78;;;30.66;30.44
6835;BME280;3455;42.150;24.734;2023-04-22T08:30:08;69026.75;;;31.00;29.20
6835;BME280;3455;42.150;24.734;2023-04-22T08:32:37;68950.78;;;30.59;30.06
6835;BME280;3455;42.150;24.734;2023-04-22T08:35:04;69129.81;;;31.60;28.29
6835;BME280;3455;42.150;24.734;2023-04-22T08:37:31;69000.41;;;30.71;28.89
6835;BME280;3455;42.150;24.734;2023-04-22T08:39:58;68927.56;;;30.62;28.37
6835;BME280;3455;42.150;24.734;2023-04-22T08:42:25;69037.09;;;31.12;28.23
6835;BME280;3455;42.150;24.734;2023-04-22T08:44:53;69039.56;;;31.23;27.37
6835;BME280;3455;42.150;24.734;2023-04-22T08:47:20;69208.09;;;32.10;26.20
6835;BME280;3455;42.150;24.734;2023-04-22T08:49:49;69277.25;;;32.54;26.40
6835;BME280;3455;42.150;24.734;2023-04-22T08:52:17;69316.00;;;32.70;25.84
6835;BME280;3455;42.150;24.734;2023-04-22T08:54:44;69154.09;;;31.86;26.29
6835;BME280;3455;42.150;24.734;2023-04-22T08:57:11;69131.06;;;31.87;25.82
6835;BME280;3455;42.150;24.734;2023-04-22T08:59:40;69177.25;;;32.15;25.91
6835;BME280;3455;42.150;24.734;2023-04-22T09:02:12;69220.16;;;32.18;26.57
6835;BME280;3455;42.150;24.734;2023-04-22T09:04:39;69328.72;;;32.83;24.81
6835;BME280;3455;42.150;24.734;2023-04-22T09:07:09;69316.91;;;32.93;24.98
6835;BME280;3455;42.150;24.734;2023-04-22T09:09:40;69507.41;;;33.97;24.25
6835;BME280;3455;42.150;24.734;2023-04-22T09:12:09;69194.56;;;32.03;25.68
6835;BME280;3455;42.150;24.734;2023-04-22T09:14:37;69225.25;;;32.30;27.05
6835;BME280;3455;42.150;24.734;2023-04-22T09:17:03;69252.03;;;32.26;25.44
6835;BME280;3455;42.150;24.734;2023-04-22T09:19:30;69207.16;;;32.07;26.48
6835;BME280;3455;42.150;24.734;2023-04-22T09:21:57;68979.59;;;30.80;27.34
6835;BME280;3455;42.150;24.734;2023-04-22T09:24:25;69300.88;;;32.95;25.08
6835;BME280;3455;42.150;24.734;2023-04-22T09:26:54;69310.34;;;32.63;26.44
6835;BME280;3455;42.150;24.734;2023-04-22T09:29:21;69296.31;;;32.59;26.37
6835;BME280;3455;42.150;24.734;2023-04-22T09:31:54;69366.31;;;33.18;25.27
6835;BME280;3455;42.150;24.734;2023-04-22T09:34:21;69479.66;;;33.78;24.08
6835;BME280;3455;42.150;24.734;2023-04-22T09:36:49;69122.31;;;31.63;27.31
6835;BME280;3455;42.150;24.734;2023-04-22T09:39:16;68786.91;;;29.80;29.92
6835;BME280;3455;42.150;24.734;2023-04-22T09:41:53;68653.63;;;28.78;31.46
6835;BME280;3455;42.150;24.734;2023-04-22T09:44:20;68876.31;;;30.17;29.15
6835;BME280;3455;42.150;24.734;2023-04-22T09:46:48;69075.63;;;31.38;28.12
6835;BME280;3455;42.150;24.734;2023-04-22T09:49:15;68970.81;;;30.77;27.79
6835;BME280;3455;42.150;24.734;2023-04-22T09:51:42;68959.81;;;30.81;27.59
6835;BME280;3455;42.150;24.734;2023-04-22T09:54:09;68838.00;;;29.79;29.17
6835;BME280;3455;42.150;24.734;2023-04-22T09:56:45;68973.69;;;30.75;28.07
6835;BME280;3455;42.150;24.734;2023-04-22T09:59:16;69145.50;;;31.76;26.88
6835;BME280;3455;42.150;24.734;2023-04-22T10:01:44;68797.19;;;29.71;29.17
6835;BME280;3455;42.150;24.734;2023-04-22T10:04:11;68965.00;;;30.76;27.68
6835;BME280;3455;42.150;24.734;2023-04-22T10:06:40;69390.78;;;33.32;24.30
6835;BME280;3455;42.150;24.734;2023-04-22T10:09:06;69157.69;;;31.94;25.07
6835;BME280;3455;42.150;24.734;2023-04-22T10:11:33;69280.19;;;32.77;23.87
6835;BME280;3455;42.150;24.734;2023-04-22T10:14:02;69324.84;;;32.98;25.12
6835;BME280;3455;42.150;24.734;2023-04-22T10:16:31;69457.81;;;33.63;23.23
6835;BME280;3455;42.150;24.734;2023-04-22T10:19:01;69425.44;;;33.49;23.52
6835;BME280;3455;42.150;24.734;2023-04-22T10:21:29;69437.03;;;33.41;23.34
6835;BME280;3455;42.150;24.734;2023-04-22T10:23:58;69486.09;;;33.79;22.65
6835;BME280;3455;42.150;24.734;2023-04-22T10:26:39;69505.56;;;33.91;22.86
6835;BME280;3455;42.150;24.734;2023-04-22T10:29:08;69319.41;;;32.64;24.74
6835;BME280;3455;42.150;24.734;2023-04-22T10:31:38;69013.50;;;31.12;25.54
6835;BME280;3455;42.150;24.734;2023-04-22T10:34:09;68834.47;;;30.17;27.02
6835;BME280;3455;42.150;24.734;2023-04-22T10:36:51;68805.69;;;29.97;28.08
6835;BME280;3455;42.150;24.734;2023-04-22T10:39:19;69146.94;;;31.75;25.49
6835;BME280;3455;42.150;24.734;2023-04-22T10:41:50;69436.09;;;33.58;24.88
6835;BME280;3455;42.150;24.734;2023-04-22T10:44:20;69599.56;;;34.38;22.40
6835;BME280;3455;42.150;24.734;2023-04-22T10:47:00;69659.88;;;34.61;22.71
6835;BME280;3455;42.150;24.734;2023-04-22T10:49:29;69605.22;;;34.45;22.22
6835;BME280;3455;42.150;24.734;2023-04-22T10:51:58;69589.56;;;34.34;22.88
6835;BME280;3455;42.150;24.734;2023-04-22T10:54:57;69621.41;;;34.52;21.93
6835;BME280;3455;42.150;24.734;2023-04-22T10:57:30;69685.97;;;34.83;22.48
6835;BME280;3455;42.150;24.734;2023-04-22T11:00:16;70029.94;;;36.62;20.09
6835;BME280;3455;42.150;24.734;2023-04-22T11:02:44;69750.63;;;35.39;21.41
6835;BME280;3455;42.150;24.734;2023-04-22T11:05:18;69234.97;;;32.56;23.62
6835;BME280;3455;42.150;24.734;2023-04-22T11:07:46;69258.34;;;32.58;23.52
6835;BME280;3455;42.150;24.734;2023-04-22T11:10:29;69064.50;;;31.54;24.30
6835;BME280;3455;42.150;24.734;2023-04-22T11:12:57;68622.56;;;28.76;27.65
6835;BME280;3455;42.150;24.734;2023-04-22T11:15:25;68680.94;;;29.20;27.33
6835;BME280;3455;42.150;24.734;2023-04-22T11:17:53;68926.84;;;30.52;25.51
6835;BME280;3455;42.150;24.734;2023-04-22T11:20:20;68841.16;;;29.96;26.75
6835;BME280;3455;42.150;24.734;2023-04-22T11:22:50;68605.06;;;28.49;27.52
6835;BME280;3455;42.150;24.734;2023-04-22T11:25:17;68230.53;;;26.08;30.72
6835;BME280;3455;42.150;24.734;2023-04-22T11:27:44;68199.03;;;25.89;31.75
6835;BME280;3455;42.150;24.734;2023-04-22T11:30:13;68006.63;;;24.20;34.60
6835;BME280;3455;42.150;24.734;2023-04-22T11:32:43;67808.66;;;22.78;37.58
6835;BME280;3455;42.150;24.734;2023-04-22T11:35:11;67790.31;;;22.48;39.62
6835;BME280;3455;42.150;24.734;2023-04-22T11:37:39;67787.16;;;22.64;39.50
6835;BME280;3455;42.150;24.734;2023-04-22T11:40:07;67584.25;;;21.12;42.57
6835;BME280;3455;42.150;24.734;2023-04-22T11:42:34;67497.19;;;20.49;42.92
6835;BME280;3455;42.150;24.734;2023-04-22T11:45:01;67484.88;;;20.34;44.12
6835;BME280;3455;42.150;24.734;2023-04-22T11:47:28;67526.06;;;20.34;44.77
6835;BME280;3455;42.150;24.734;2023-04-22T11:49:58;67444.06;;;19.77;47.43
6835;BME280;3455;42.150;24.734;2023-04-22T11:52:43;67394.38;;;19.36;49.54
6835;BME280;3455;42.150;24.734;2023-04-22T11:55:10;67416.13;;;19.53;50.44
6835;BME280;3455;42.150;24.734;2023-04-22T11:57:37;67318.16;;;19.23;50.52
6835;BME280;3455;42.150;24.734;2023-04-22T12:00:06;67388.75;;;19.13;52.44
6835;BME280;3455;42.150;24.734;2023-04-22T12:02:34;67316.75;;;18.81;59.19
6835;BME280;3455;42.150;24.734;2023-04-22T12:05:03;67383.53;;;19.08;61.19
6835;BME280;3455;42.150;24.734;2023-04-22T12:07:30;67349.34;;;18.98;60.83
6835;BME280;3455;42.150;24.734;2023-04-22T12:09:58;67222.56;;;18.20;63.57
6835;BME280;3455;42.150;24.734;2023-04-22T12:12:26;67278.31;;;18.15;64.57
6835;BME280;3455;42.150;24.734;2023-04-22T12:14:53;67278.78;;;18.38;65.04
6835;BME280;3455;42.150;24.734;2023-04-22T12:17:22;67330.00;;;18.61;63.87
6835;BME280;3455;42.150;24.734;2023-04-22T12:19:52;67300.31;;;18.57;65.92
6835;BME280;3455;42.150;24.734;2023-04-22T12:22:25;67300.19;;;18.25;64.00
6835;BME280;3455;42.150;24.734;2023-04-22T12:24:52;67250.44;;;17.90;65.53
6835;BME280;3455;42.150;24.734;2023-04-22T12:27:19;67243.84;;;18.03;65.37
6835;BME280;3455;42.150;24.734;2023-04-22T12:29:53;67230.41;;;17.86;67.16
6835;BME280;3455;42.150;24.734;2023-04-22T12:32:20;67406.13;;;17.74;67.35
6835;BME280;3455;42.150;24.734;2023-04-22T12:34:47;67196.13;;;17.56;66.99
6835;BME280;3455;42.150;24.734;2023-04-22T12:37:14;67251.38;;;17.82;67.40
6835;BME280;3455;42.150;24.734;2023-04-22T12:39:42;67238.25;;;18.07;66.45
6835;BME280;3455;42.150;24.734;2023-04-22T12:42:09;67195.56;;;17.56;66.40
6835;BME280;3455;42.150;24.734;2023-04-22T12:44:36;67217.34;;;17.88;67.54
6835;BME280;3455;42.150;24.734;2023-04-22T12:47:03;67263.59;;;18.20;64.26
6835;BME280;3455;42.150;24.734;2023-04-22T12:49:30;67259.16;;;18.25;64.47
6835;BME280;3455;42.150;24.734;2023-04-22T12:51:56;67297.50;;;18.59;60.89
6835;BME280;3455;42.150;24.734;2023-04-22T12:54:23;67321.00;;;18.66;60.04
6835;BME280;3455;42.150;24.734;2023-04-22T12:56:51;67375.59;;;18.83;58.92
6835;BME280;3455;42.150;24.734;2023-04-22T12:59:18;67265.13;;;18.40;59.04
6835;BME280;3455;42.150;24.734;2023-04-22T13:01:45;67412.38;;;18.70;58.11
6835;BME280;3455;42.150;24.734;2023-04-22T13:04:11;67350.28;;;19.01;57.88
6835;BME280;3455;42.150;24.734;2023-04-22T13:06:38;67359.38;;;19.00;57.15
6835;BME280;3455;42.150;24.734;2023-04-22T13:09:06;67345.72;;;18.75;56.12
6835;BME280;3455;42.150;24.734;2023-04-22T13:11:32;67369.16;;;18.77;58.09
6835;BME280;3455;42.150;24.734;2023-04-22T13:14:01;67344.13;;;18.66;61.46